PWSweather.com
Personal Weather Stations
Station Observations
KOHCLEVE171
Cleveland, OH

Cleveland, OH

Lat: 41.48646164, Lon: -81.46408081

Elevation: 1059

Station Type:

High Low Average
Temperature 41.5°F5.3°C 31.8°F-0.1°C 36.3°F2.4°C
Dew Point 36.9°F2.7°C 25.3°F-3.7°C 29.9°F-1.2°C
Winds 6.3 mph 10.1 kmh Calm Calm 3.0 mph S4.8 kmh S
Wind Gusts 16.3 mph26.2 kmh -- 5.0 mph8.0 kmh
Humidity 87% 69% 77%
Pressure 30.43 in1030.5 mb 29.91 in1012.9 mb -
Precipitation 0.00 in0.0 mm - -
Hour Temp Dew Point Humidity Winds Wind Gusts Pressure Precip Precip Rate Daily Precip Total
12:04 AM 40.6°F4.8°C 36.9°F2.7°C 86% 1.6 mph WNW2.6 kmh WNW 4.7 mph7.6 kmh 29.89 in1012.2 mb 0.00 in0.0 mm 0.00 in0.0 mm 0.00 in0.0 mm
12:09 AM 40.6°F4.8°C 36.9°F2.7°C 86% 1.6 mph WSW2.6 kmh WSW 3.1 mph5.0 kmh 29.90 in1012.5 mb 0.00 in0.0 mm 0.00 in0.0 mm 0.00 in0.0 mm
12:14 AM 40.5°F4.7°C 36.7°F2.6°C 86% 1.3 mph W2.1 kmh W 2.9 mph4.7 kmh 29.90 in1012.5 mb 0.00 in0.0 mm 0.00 in0.0 mm 0.00 in0.0 mm
12:19 AM 40.3°F4.6°C 36.5°F2.5°C 86% 2.0 mph W3.2 kmh W 4.3 mph6.9 kmh 29.90 in1012.5 mb 0.00 in0.0 mm 0.00 in0.0 mm 0.00 in0.0 mm
12:24 AM 40.5°F4.7°C 36.7°F2.6°C 86% 3.1 mph WSW5.0 kmh WSW 9.4 mph15.1 kmh 29.90 in1012.5 mb 0.00 in0.0 mm 0.00 in0.0 mm 0.00 in0.0 mm
12:29 AM 40.3°F4.6°C 36.5°F2.5°C 86% 1.3 mph NNW2.1 kmh NNW 2.5 mph4.0 kmh 29.90 in1012.5 mb 0.00 in0.0 mm 0.00 in0.0 mm 0.00 in0.0 mm
12:34 AM 40.3°F4.6°C 36.7°F2.6°C 87% 2.5 mph W4.0 kmh W 9.2 mph14.8 kmh 29.90 in1012.5 mb 0.00 in0.0 mm 0.00 in0.0 mm 0.00 in0.0 mm
12:39 AM 40.5°F4.7°C 36.7°F2.6°C 86% 1.3 mph NNW2.1 kmh NNW 2.9 mph4.7 kmh 29.91 in1012.9 mb 0.00 in0.0 mm 0.00 in0.0 mm 0.00 in0.0 mm
12:44 AM 40.3°F4.6°C 36.5°F2.5°C 86% 1.6 mph W2.6 kmh W 3.4 mph5.5 kmh 29.91 in1012.9 mb 0.00 in0.0 mm 0.00 in0.0 mm 0.00 in0.0 mm
12:49 AM 40.3°F4.6°C 36.5°F2.5°C 86% 2.2 mph NW3.5 kmh NW 4.7 mph7.6 kmh 29.91 in1012.9 mb 0.00 in0.0 mm 0.00 in0.0 mm 0.00 in0.0 mm
12:54 AM 40.5°F4.7°C 36.7°F2.6°C 86% 3.4 mph WSW5.5 kmh WSW 12.3 mph19.8 kmh 29.91 in1012.9 mb 0.00 in0.0 mm 0.00 in0.0 mm 0.00 in0.0 mm
01:04 AM 41.0°F5.0°C 36.9°F2.7°C 85% 3.1 mph W5.0 kmh W 7.6 mph12.2 kmh 29.91 in1012.9 mb 0.00 in0.0 mm 0.00 in0.0 mm 0.00 in0.0 mm
01:09 AM 41.2°F5.1°C 36.7°F2.6°C 84% 3.6 mph NNW5.8 kmh NNW 6.7 mph10.8 kmh 29.91 in1012.9 mb 0.00 in0.0 mm 0.00 in0.0 mm 0.00 in0.0 mm
01:14 AM 41.4°F5.2°C 36.3°F2.4°C 82% 4.5 mph NNW7.2 kmh NNW 9.6 mph15.4 kmh 29.91 in1012.9 mb 0.00 in0.0 mm 0.00 in0.0 mm 0.00 in0.0 mm
01:19 AM 41.5°F5.3°C 36.5°F2.5°C 82% 3.1 mph NW5.0 kmh NW 6.7 mph10.8 kmh 29.91 in1012.9 mb 0.00 in0.0 mm 0.00 in0.0 mm 0.00 in0.0 mm
01:24 AM 41.4°F5.2°C 36.3°F2.4°C 82% 3.4 mph NW5.5 kmh NW 10.3 mph16.6 kmh 29.91 in1012.9 mb 0.00 in0.0 mm 0.00 in0.0 mm 0.00 in0.0 mm
01:29 AM 41.4°F5.2°C 36.3°F2.4°C 82% 4.0 mph NNW6.4 kmh NNW 6.7 mph10.8 kmh 29.92 in1013.2 mb 0.00 in0.0 mm 0.00 in0.0 mm 0.00 in0.0 mm
01:34 AM 41.4°F5.2°C 36.0°F2.2°C 81% 2.9 mph N4.7 kmh N 10.5 mph16.9 kmh 29.92 in1013.2 mb 0.00 in0.0 mm 0.00 in0.0 mm 0.00 in0.0 mm
01:39 AM 41.4°F5.2°C 36.3°F2.4°C 82% 2.7 mph WNW4.3 kmh WNW 4.5 mph7.2 kmh 29.93 in1013.5 mb 0.00 in0.0 mm 0.00 in0.0 mm 0.00 in0.0 mm
01:44 AM 41.2°F5.1°C 36.1°F2.3°C 82% 5.6 mph NW9.0 kmh NW 16.3 mph26.2 kmh 29.93 in1013.5 mb 0.00 in0.0 mm 0.00 in0.0 mm 0.00 in0.0 mm
01:49 AM 41.0°F5.0°C 36.0°F2.2°C 82% 2.9 mph NW4.7 kmh NW 5.6 mph9.0 kmh 29.93 in1013.5 mb 0.00 in0.0 mm 0.00 in0.0 mm 0.00 in0.0 mm
01:54 AM 41.0°F5.0°C 36.0°F2.2°C 82% 4.3 mph NW6.9 kmh NW 8.3 mph13.4 kmh 29.93 in1013.5 mb 0.00 in0.0 mm 0.00 in0.0 mm 0.00 in0.0 mm
01:59 AM 40.8°F4.9°C 35.8°F2.1°C 82% 4.3 mph NNW6.9 kmh NNW 6.3 mph10.1 kmh 29.94 in1013.9 mb 0.00 in0.0 mm 0.00 in0.0 mm 0.00 in0.0 mm
02:04 AM 40.6°F4.8°C 35.6°F2.0°C 82% 4.9 mph N7.9 kmh N 7.6 mph12.2 kmh 29.95 in1014.2 mb 0.00 in0.0 mm 0.00 in0.0 mm 0.00 in0.0 mm
02:09 AM 40.5°F4.7°C 36.0°F2.2°C 84% 2.7 mph N4.3 kmh N 4.3 mph6.9 kmh 29.95 in1014.2 mb 0.00 in0.0 mm 0.00 in0.0 mm 0.00 in0.0 mm
02:14 AM 40.3°F4.6°C 35.8°F2.1°C 84% 6.0 mph NW9.7 kmh NW 10.5 mph16.9 kmh 29.95 in1014.2 mb 0.00 in0.0 mm 0.00 in0.0 mm 0.00 in0.0 mm
02:19 AM 40.1°F4.5°C 35.6°F2.0°C 84% 4.5 mph N7.2 kmh N 9.8 mph15.8 kmh 29.96 in1014.6 mb 0.00 in0.0 mm 0.00 in0.0 mm 0.00 in0.0 mm
02:24 AM 40.1°F4.5°C 35.6°F2.0°C 84% 4.0 mph N6.4 kmh N 7.4 mph11.9 kmh 29.96 in1014.6 mb 0.00 in0.0 mm 0.00 in0.0 mm 0.00 in0.0 mm
02:29 AM 39.9°F4.4°C 35.8°F2.1°C 85% 3.6 mph NNW5.8 kmh NNW 7.2 mph11.6 kmh 29.97 in1014.9 mb 0.00 in0.0 mm 0.00 in0.0 mm 0.00 in0.0 mm
02:34 AM 39.7°F4.3°C 35.6°F2.0°C 85% 4.5 mph NNW7.2 kmh NNW 8.7 mph14.0 kmh 29.97 in1014.9 mb 0.00 in0.0 mm 0.00 in0.0 mm 0.00 in0.0 mm
02:39 AM 39.6°F4.2°C 35.4°F1.9°C 85% 3.8 mph NNW6.1 kmh NNW 7.8 mph12.6 kmh 29.98 in1015.2 mb 0.00 in0.0 mm 0.00 in0.0 mm 0.00 in0.0 mm
02:44 AM 39.6°F4.2°C 35.4°F1.9°C 85% 2.7 mph NNW4.3 kmh NNW 5.6 mph9.0 kmh 29.98 in1015.2 mb 0.00 in0.0 mm 0.00 in0.0 mm 0.00 in0.0 mm
02:49 AM 39.6°F4.2°C 35.4°F1.9°C 85% 3.8 mph NNW6.1 kmh NNW 6.3 mph10.1 kmh 29.98 in1015.2 mb 0.00 in0.0 mm 0.00 in0.0 mm 0.00 in0.0 mm
02:54 AM 39.6°F4.2°C 35.4°F1.9°C 85% 3.4 mph NNW5.5 kmh NNW 8.1 mph13.0 kmh 29.98 in1015.2 mb 0.00 in0.0 mm 0.00 in0.0 mm 0.00 in0.0 mm
02:59 AM 39.6°F4.2°C 35.4°F1.9°C 85% 3.8 mph NNW6.1 kmh NNW 6.9 mph11.1 kmh 29.98 in1015.2 mb 0.00 in0.0 mm 0.00 in0.0 mm 0.00 in0.0 mm
03:04 AM 39.4°F4.1°C 35.6°F2.0°C 86% 4.5 mph N7.2 kmh N 7.2 mph11.6 kmh 29.98 in1015.2 mb 0.00 in0.0 mm 0.00 in0.0 mm 0.00 in0.0 mm
03:09 AM 39.4°F4.1°C 35.6°F2.0°C 86% 3.4 mph NNW5.5 kmh NNW 10.5 mph16.9 kmh 29.98 in1015.2 mb 0.00 in0.0 mm 0.00 in0.0 mm 0.00 in0.0 mm
03:14 AM 39.2°F4.0°C 35.4°F1.9°C 86% 3.4 mph N5.5 kmh N 6.7 mph10.8 kmh 29.99 in1015.6 mb 0.00 in0.0 mm 0.00 in0.0 mm 0.00 in0.0 mm
03:19 AM 39.2°F4.0°C 35.4°F1.9°C 86% 3.6 mph NNW5.8 kmh NNW 6.7 mph10.8 kmh 29.99 in1015.6 mb 0.00 in0.0 mm 0.00 in0.0 mm 0.00 in0.0 mm
03:24 AM 39.0°F3.9°C 35.2°F1.8°C 86% 6.3 mph NNW10.1 kmh NNW 13.9 mph22.4 kmh 30.00 in1015.9 mb 0.00 in0.0 mm 0.00 in0.0 mm 0.00 in0.0 mm
03:29 AM 39.0°F3.9°C 35.4°F1.9°C 87% 3.8 mph N6.1 kmh N 5.4 mph8.7 kmh 30.00 in1015.9 mb 0.00 in0.0 mm 0.00 in0.0 mm 0.00 in0.0 mm
03:34 AM 39.0°F3.9°C 35.4°F1.9°C 87% 4.0 mph N6.4 kmh N 7.4 mph11.9 kmh 30.00 in1015.9 mb 0.00 in0.0 mm 0.00 in0.0 mm 0.00 in0.0 mm
03:39 AM 39.0°F3.9°C 35.4°F1.9°C 87% 3.1 mph N5.0 kmh N 4.7 mph7.6 kmh 30.01 in1016.3 mb 0.00 in0.0 mm 0.00 in0.0 mm 0.00 in0.0 mm
03:44 AM 38.8°F3.8°C 35.1°F1.7°C 86% 2.0 mph N3.2 kmh N 3.1 mph5.0 kmh 30.01 in1016.3 mb 0.00 in0.0 mm 0.00 in0.0 mm 0.00 in0.0 mm
03:49 AM 38.8°F3.8°C 35.1°F1.7°C 86% 2.5 mph N4.0 kmh N 5.4 mph8.7 kmh 30.01 in1016.3 mb 0.00 in0.0 mm 0.00 in0.0 mm 0.00 in0.0 mm
03:54 AM 39.0°F3.9°C 34.9°F1.6°C 85% 3.6 mph N5.8 kmh N 5.4 mph8.7 kmh 30.01 in1016.3 mb 0.00 in0.0 mm 0.00 in0.0 mm 0.00 in0.0 mm
03:59 AM 39.0°F3.9°C 34.5°F1.4°C 84% 5.8 mph NNW9.3 kmh NNW 11.2 mph18.0 kmh 30.01 in1016.3 mb 0.00 in0.0 mm 0.00 in0.0 mm 0.00 in0.0 mm
04:04 AM 39.0°F3.9°C 34.5°F1.4°C 84% 4.3 mph N6.9 kmh N 6.7 mph10.8 kmh 30.02 in1016.6 mb 0.00 in0.0 mm 0.00 in0.0 mm 0.00 in0.0 mm
04:09 AM 39.0°F3.9°C 34.5°F1.4°C 84% 4.5 mph N7.2 kmh N 7.6 mph12.2 kmh 30.02 in1016.6 mb 0.00 in0.0 mm 0.00 in0.0 mm 0.00 in0.0 mm
04:14 AM 39.0°F3.9°C 34.5°F1.4°C 84% 3.4 mph N5.5 kmh N 5.4 mph8.7 kmh 30.02 in1016.6 mb 0.00 in0.0 mm 0.00 in0.0 mm 0.00 in0.0 mm
04:19 AM 38.8°F3.8°C 34.3°F1.3°C 84% 2.7 mph N4.3 kmh N 5.1 mph8.2 kmh 30.02 in1016.6 mb 0.00 in0.0 mm 0.00 in0.0 mm 0.00 in0.0 mm
04:24 AM 38.8°F3.8°C 34.3°F1.3°C 84% 2.9 mph N4.7 kmh N 3.4 mph5.5 kmh 30.02 in1016.6 mb 0.00 in0.0 mm 0.00 in0.0 mm 0.00 in0.0 mm
04:29 AM 38.7°F3.7°C 34.2°F1.2°C 84% 2.9 mph N4.7 kmh N 4.9 mph7.9 kmh 30.03 in1016.9 mb 0.00 in0.0 mm 0.00 in0.0 mm 0.00 in0.0 mm
04:34 AM 38.7°F3.7°C 34.2°F1.2°C 84% 4.9 mph N7.9 kmh N 9.4 mph15.1 kmh 30.03 in1016.9 mb 0.00 in0.0 mm 0.00 in0.0 mm 0.00 in0.0 mm
04:39 AM 38.7°F3.7°C 34.2°F1.2°C 84% 2.7 mph N4.3 kmh N 4.5 mph7.2 kmh 30.03 in1016.9 mb 0.00 in0.0 mm 0.00 in0.0 mm 0.00 in0.0 mm
04:44 AM 38.5°F3.6°C 34.0°F1.1°C 84% 4.0 mph N6.4 kmh N 6.7 mph10.8 kmh 30.03 in1016.9 mb 0.00 in0.0 mm 0.00 in0.0 mm 0.00 in0.0 mm
04:49 AM 38.5°F3.6°C 34.0°F1.1°C 84% 3.1 mph N5.0 kmh N 4.9 mph7.9 kmh 30.03 in1016.9 mb 0.00 in0.0 mm 0.00 in0.0 mm 0.00 in0.0 mm
04:54 AM 38.5°F3.6°C 34.0°F1.1°C 84% 4.0 mph NNW6.4 kmh NNW 7.4 mph11.9 kmh 30.03 in1016.9 mb 0.00 in0.0 mm 0.00 in0.0 mm 0.00 in0.0 mm
04:59 AM 38.5°F3.6°C 34.0°F1.1°C 84% 3.4 mph 5.5 kmh 5.4 mph8.7 kmh 30.03 in1016.9 mb 0.00 in0.0 mm 0.00 in0.0 mm 0.00 in0.0 mm
05:04 AM 38.5°F3.6°C 34.0°F1.1°C 84% 4.5 mph N7.2 kmh N 6.0 mph9.7 kmh 30.04 in1017.3 mb 0.00 in0.0 mm 0.00 in0.0 mm 0.00 in0.0 mm
05:09 AM 38.5°F3.6°C 34.0°F1.1°C 84% 3.4 mph N5.5 kmh N 9.6 mph15.4 kmh 30.04 in1017.3 mb 0.00 in0.0 mm 0.00 in0.0 mm 0.00 in0.0 mm
05:14 AM 38.3°F3.5°C 34.0°F1.1°C 84% 2.5 mph NNW4.0 kmh NNW 3.8 mph6.1 kmh 30.04 in1017.3 mb 0.00 in0.0 mm 0.00 in0.0 mm 0.00 in0.0 mm
05:19 AM 38.3°F3.5°C 34.0°F1.1°C 84% 2.9 mph NNW4.7 kmh NNW 4.3 mph6.9 kmh 30.04 in1017.3 mb 0.00 in0.0 mm 0.00 in0.0 mm 0.00 in0.0 mm
05:24 AM 38.3°F3.5°C 34.0°F1.1°C 84% 4.3 mph NW6.9 kmh NW 8.9 mph14.3 kmh 30.05 in1017.6 mb 0.00 in0.0 mm 0.00 in0.0 mm 0.00 in0.0 mm
05:29 AM 38.3°F3.5°C 34.0°F1.1°C 84% 5.1 mph N8.2 kmh N 9.2 mph14.8 kmh 30.06 in1017.9 mb 0.00 in0.0 mm 0.00 in0.0 mm 0.00 in0.0 mm
05:34 AM 38.3°F3.5°C 34.0°F1.1°C 84% 4.7 mph N7.6 kmh N 7.2 mph11.6 kmh 30.06 in1017.9 mb 0.00 in0.0 mm 0.00 in0.0 mm 0.00 in0.0 mm
05:39 AM 38.3°F3.5°C 34.0°F1.1°C 84% 3.4 mph N5.5 kmh N 4.0 mph6.4 kmh 30.06 in1017.9 mb 0.00 in0.0 mm 0.00 in0.0 mm 0.00 in0.0 mm
05:44 AM 38.1°F3.4°C 34.0°F1.1°C 85% 2.9 mph N4.7 kmh N 5.8 mph9.3 kmh 30.06 in1017.9 mb 0.00 in0.0 mm 0.00 in0.0 mm 0.00 in0.0 mm
05:49 AM 38.1°F3.4°C 34.0°F1.1°C 85% 3.6 mph N5.8 kmh N 6.7 mph10.8 kmh 30.07 in1018.3 mb 0.00 in0.0 mm 0.00 in0.0 mm 0.00 in0.0 mm
05:54 AM 38.1°F3.4°C 34.0°F1.1°C 85% 3.4 mph N5.5 kmh N 4.7 mph7.6 kmh 30.07 in1018.3 mb 0.00 in0.0 mm 0.00 in0.0 mm 0.00 in0.0 mm
05:59 AM 38.1°F3.4°C 34.0°F1.1°C 85% 3.4 mph N5.5 kmh N 4.9 mph7.9 kmh 30.08 in1018.6 mb 0.00 in0.0 mm 0.00 in0.0 mm 0.00 in0.0 mm
06:04 AM 38.1°F3.4°C 34.0°F1.1°C 85% 3.4 mph N5.5 kmh N 5.8 mph9.3 kmh 30.08 in1018.6 mb 0.00 in0.0 mm 0.00 in0.0 mm 0.00 in0.0 mm
06:09 AM 38.1°F3.4°C 34.0°F1.1°C 85% 2.2 mph N3.5 kmh N 3.4 mph5.5 kmh 30.08 in1018.6 mb 0.00 in0.0 mm 0.00 in0.0 mm 0.00 in0.0 mm
06:14 AM 37.9°F3.3°C 33.6°F0.9°C 84% 4.7 mph N7.6 kmh N 7.4 mph11.9 kmh 30.09 in1019.0 mb 0.00 in0.0 mm 0.00 in0.0 mm 0.00 in0.0 mm
06:19 AM 37.9°F3.3°C 33.6°F0.9°C 84% 4.3 mph N6.9 kmh N 5.8 mph9.3 kmh 30.09 in1019.0 mb 0.00 in0.0 mm 0.00 in0.0 mm 0.00 in0.0 mm
06:24 AM 37.9°F3.3°C 33.8°F1.0°C 85% 3.1 mph N5.0 kmh N 4.3 mph6.9 kmh 30.09 in1019.0 mb 0.00 in0.0 mm 0.00 in0.0 mm 0.00 in0.0 mm
06:29 AM 37.9°F3.3°C 33.8°F1.0°C 85% 2.0 mph N3.2 kmh N 3.6 mph5.8 kmh 30.10 in1019.3 mb 0.00 in0.0 mm 0.00 in0.0 mm 0.00 in0.0 mm
06:34 AM 37.9°F3.3°C 33.8°F1.0°C 85% 5.6 mph NNW9.0 kmh NNW 7.4 mph11.9 kmh 30.11 in1019.6 mb 0.00 in0.0 mm 0.00 in0.0 mm 0.00 in0.0 mm
06:39 AM 37.9°F3.3°C 33.8°F1.0°C 85% 2.7 mph N4.3 kmh N 4.0 mph6.4 kmh 30.10 in1019.3 mb 0.00 in0.0 mm 0.00 in0.0 mm 0.00 in0.0 mm
06:44 AM 37.8°F3.2°C 33.4°F0.8°C 84% 3.6 mph N5.8 kmh N 4.7 mph7.6 kmh 30.11 in1019.6 mb 0.00 in0.0 mm 0.00 in0.0 mm 0.00 in0.0 mm
06:49 AM 37.8°F3.2°C 33.4°F0.8°C 84% 5.1 mph N8.2 kmh N 7.6 mph12.2 kmh 30.11 in1019.6 mb 0.00 in0.0 mm 0.00 in0.0 mm 0.00 in0.0 mm
06:54 AM 37.8°F3.2°C 32.7°F0.4°C 82% 3.8 mph N6.1 kmh N 5.1 mph8.2 kmh 30.11 in1019.6 mb 0.00 in0.0 mm 0.00 in0.0 mm 0.00 in0.0 mm
06:59 AM 37.8°F3.2°C 32.7°F0.4°C 82% 5.4 mph N8.7 kmh N 7.4 mph11.9 kmh 30.11 in1019.6 mb 0.00 in0.0 mm 0.00 in0.0 mm 0.00 in0.0 mm
07:04 AM 37.8°F3.2°C 32.5°F0.3°C 81% 3.8 mph N6.1 kmh N 7.2 mph11.6 kmh 30.11 in1019.6 mb 0.00 in0.0 mm 0.00 in0.0 mm 0.00 in0.0 mm
07:09 AM 37.8°F3.2°C 32.5°F0.3°C 81% 5.1 mph N8.2 kmh N 8.1 mph13.0 kmh 30.12 in1020.0 mb 0.00 in0.0 mm 0.00 in0.0 mm 0.00 in0.0 mm
07:14 AM 37.6°F3.1°C 32.5°F0.3°C 82% 2.9 mph N4.7 kmh N 3.8 mph6.1 kmh 30.12 in1020.0 mb 0.00 in0.0 mm 0.00 in0.0 mm 0.00 in0.0 mm
07:19 AM 37.6°F3.1°C 32.4°F0.2°C 81% 3.6 mph N5.8 kmh N 4.7 mph7.6 kmh 30.13 in1020.3 mb 0.00 in0.0 mm 0.00 in0.0 mm 0.00 in0.0 mm
07:24 AM 37.6°F3.1°C 32.4°F0.2°C 81% 3.4 mph NW5.5 kmh NW 5.8 mph9.3 kmh 30.13 in1020.3 mb 0.00 in0.0 mm 0.00 in0.0 mm 0.00 in0.0 mm
07:29 AM 37.6°F3.1°C 32.4°F0.2°C 81% 3.1 mph N5.0 kmh N 4.9 mph7.9 kmh 30.13 in1020.3 mb 0.00 in0.0 mm 0.00 in0.0 mm 0.00 in0.0 mm
07:34 AM 37.6°F3.1°C 32.4°F0.2°C 81% 3.6 mph N5.8 kmh N 4.7 mph7.6 kmh 30.13 in1020.3 mb 0.00 in0.0 mm 0.00 in0.0 mm 0.00 in0.0 mm
07:39 AM 37.6°F3.1°C 32.0°F0.0°C 80% 4.0 mph N6.4 kmh N 6.7 mph10.8 kmh 30.14 in1020.7 mb 0.00 in0.0 mm 0.00 in0.0 mm 0.00 in0.0 mm
07:44 AM 37.6°F3.1°C 32.0°F0.0°C 80% 4.3 mph NNE6.9 kmh NNE 8.5 mph13.7 kmh 30.14 in1020.7 mb 0.00 in0.0 mm 0.00 in0.0 mm 0.00 in0.0 mm
07:49 AM 37.4°F3.0°C 31.8°F-0.1°C 80% 2.9 mph 4.7 kmh 4.0 mph6.4 kmh 30.14 in1020.7 mb 0.00 in0.0 mm 0.00 in0.0 mm 0.00 in0.0 mm
07:54 AM 37.4°F3.0°C 31.8°F-0.1°C 80% 2.2 mph 3.5 kmh 2.9 mph4.7 kmh 30.14 in1020.7 mb 0.00 in0.0 mm 0.00 in0.0 mm 0.00 in0.0 mm
07:59 AM 37.4°F3.0°C 31.8°F-0.1°C 80% 2.9 mph N4.7 kmh N 3.6 mph5.8 kmh 30.15 in1021.0 mb 0.00 in0.0 mm 0.00 in0.0 mm 0.00 in0.0 mm
08:04 AM 37.4°F3.0°C 31.8°F-0.1°C 80% 4.0 mph NNE6.4 kmh NNE 4.9 mph7.9 kmh 30.15 in1021.0 mb 0.00 in0.0 mm 0.00 in0.0 mm 0.00 in0.0 mm
08:09 AM 37.4°F3.0°C 31.8°F-0.1°C 80% 2.2 mph N3.5 kmh N 3.4 mph5.5 kmh 30.16 in1021.3 mb 0.00 in0.0 mm 0.00 in0.0 mm 0.00 in0.0 mm
08:14 AM 37.4°F3.0°C 31.8°F-0.1°C 80% 4.0 mph N6.4 kmh N 6.0 mph9.7 kmh 30.16 in1021.3 mb 0.00 in0.0 mm 0.00 in0.0 mm 0.00 in0.0 mm
08:19 AM 37.4°F3.0°C 31.8°F-0.1°C 80% 2.5 mph N4.0 kmh N 4.7 mph7.6 kmh 30.16 in1021.3 mb 0.00 in0.0 mm 0.00 in0.0 mm 0.00 in0.0 mm
08:24 AM 37.4°F3.0°C 31.8°F-0.1°C 80% 4.7 mph N7.6 kmh N 7.6 mph12.2 kmh 30.17 in1021.7 mb 0.00 in0.0 mm 0.00 in0.0 mm 0.00 in0.0 mm
08:29 AM 37.2°F2.9°C 30.7°F-0.7°C 77% 6.0 mph N9.7 kmh N 8.5 mph13.7 kmh 30.17 in1021.7 mb 0.00 in0.0 mm 0.00 in0.0 mm 0.00 in0.0 mm
08:34 AM 37.2°F2.9°C 30.4°F-0.9°C 76% 4.0 mph N6.4 kmh N 5.8 mph9.3 kmh 30.17 in1021.7 mb 0.00 in0.0 mm 0.00 in0.0 mm 0.00 in0.0 mm
08:39 AM 37.2°F2.9°C 30.4°F-0.9°C 76% 2.9 mph NNW4.7 kmh NNW 4.9 mph7.9 kmh 30.18 in1022.0 mb 0.00 in0.0 mm 0.00 in0.0 mm 0.00 in0.0 mm
08:44 AM 37.2°F2.9°C 30.7°F-0.7°C 77% 4.7 mph N7.6 kmh N 7.8 mph12.6 kmh 30.18 in1022.0 mb 0.00 in0.0 mm 0.00 in0.0 mm 0.00 in0.0 mm
08:49 AM 37.2°F2.9°C 30.7°F-0.7°C 77% 3.6 mph NNW5.8 kmh NNW 9.4 mph15.1 kmh 30.18 in1022.0 mb 0.00 in0.0 mm 0.00 in0.0 mm 0.00 in0.0 mm
08:54 AM 37.0°F2.8°C 30.7°F-0.7°C 78% 4.0 mph N6.4 kmh N 6.7 mph10.8 kmh 30.18 in1022.0 mb 0.00 in0.0 mm 0.00 in0.0 mm 0.00 in0.0 mm
08:59 AM 36.9°F2.7°C 31.3°F-0.4°C 80% 4.3 mph N6.9 kmh N 6.7 mph10.8 kmh 30.19 in1022.4 mb 0.00 in0.0 mm 0.00 in0.0 mm 0.00 in0.0 mm
09:04 AM 36.9°F2.7°C 31.3°F-0.4°C 80% 4.9 mph N7.9 kmh N 7.6 mph12.2 kmh 30.19 in1022.4 mb 0.00 in0.0 mm 0.00 in0.0 mm 0.00 in0.0 mm
09:09 AM 36.9°F2.7°C 31.3°F-0.4°C 80% 3.6 mph N5.8 kmh N 6.9 mph11.1 kmh 30.20 in1022.7 mb 0.00 in0.0 mm 0.00 in0.0 mm 0.00 in0.0 mm
09:14 AM 36.9°F2.7°C 31.3°F-0.4°C 80% 3.1 mph NNE5.0 kmh NNE 5.4 mph8.7 kmh 30.20 in1022.7 mb 0.00 in0.0 mm 0.00 in0.0 mm 0.00 in0.0 mm
09:19 AM 36.7°F2.6°C 31.1°F-0.5°C 80% 3.6 mph N5.8 kmh N 4.7 mph7.6 kmh 30.21 in1023.0 mb 0.00 in0.0 mm 0.00 in0.0 mm 0.00 in0.0 mm
09:24 AM 36.7°F2.6°C 31.1°F-0.5°C 80% 4.3 mph N6.9 kmh N 6.0 mph9.7 kmh 30.21 in1023.0 mb 0.00 in0.0 mm 0.00 in0.0 mm 0.00 in0.0 mm
09:29 AM 36.7°F2.6°C 30.4°F-0.9°C 78% 3.6 mph NNE5.8 kmh NNE 6.0 mph9.7 kmh 30.22 in1023.4 mb 0.00 in0.0 mm 0.00 in0.0 mm 0.00 in0.0 mm
09:34 AM 36.7°F2.6°C 30.4°F-0.9°C 78% 5.1 mph N8.2 kmh N 9.8 mph15.8 kmh 30.22 in1023.4 mb 0.00 in0.0 mm 0.00 in0.0 mm 0.00 in0.0 mm
09:39 AM 36.5°F2.5°C 30.4°F-0.9°C 78% 6.0 mph N9.7 kmh N 9.8 mph15.8 kmh 30.22 in1023.4 mb 0.00 in0.0 mm 0.00 in0.0 mm 0.00 in0.0 mm
09:44 AM 36.3°F2.4°C 30.2°F-1.0°C 78% 3.1 mph N5.0 kmh N 6.7 mph10.8 kmh 30.22 in1023.4 mb 0.00 in0.0 mm 0.00 in0.0 mm 0.00 in0.0 mm
09:49 AM 36.3°F2.4°C 30.7°F-0.7°C 80% 3.6 mph N5.8 kmh N 4.9 mph7.9 kmh 30.23 in1023.7 mb 0.00 in0.0 mm 0.00 in0.0 mm 0.00 in0.0 mm
09:54 AM 36.1°F2.3°C 30.0°F-1.1°C 78% 3.1 mph N5.0 kmh N 5.4 mph8.7 kmh 30.24 in1024.0 mb 0.00 in0.0 mm 0.00 in0.0 mm 0.00 in0.0 mm
09:59 AM 36.1°F2.3°C 30.0°F-1.1°C 78% 4.0 mph N6.4 kmh N 6.5 mph10.5 kmh 30.24 in1024.0 mb 0.00 in0.0 mm 0.00 in0.0 mm 0.00 in0.0 mm
10:04 AM 36.1°F2.3°C 29.7°F-1.3°C 77% 4.7 mph N7.6 kmh N 6.3 mph10.1 kmh 30.24 in1024.0 mb 0.00 in0.0 mm 0.00 in0.0 mm 0.00 in0.0 mm
10:09 AM 36.0°F2.2°C 29.1°F-1.6°C 76% 3.6 mph N5.8 kmh N 4.9 mph7.9 kmh 30.24 in1024.0 mb 0.00 in0.0 mm 0.00 in0.0 mm 0.00 in0.0 mm
10:14 AM 36.0°F2.2°C 29.1°F-1.6°C 76% 3.4 mph N5.5 kmh N 5.6 mph9.0 kmh 30.24 in1024.0 mb 0.00 in0.0 mm 0.00 in0.0 mm 0.00 in0.0 mm
10:19 AM 35.8°F2.1°C 29.3°F-1.5°C 77% 5.1 mph N8.2 kmh N 7.6 mph12.2 kmh 30.25 in1024.4 mb 0.00 in0.0 mm 0.00 in0.0 mm 0.00 in0.0 mm
10:24 AM 35.4°F1.9°C 28.9°F-1.7°C 77% 4.3 mph N6.9 kmh N 5.8 mph9.3 kmh 30.25 in1024.4 mb 0.00 in0.0 mm 0.00 in0.0 mm 0.00 in0.0 mm
10:29 AM 35.2°F1.8°C 28.8°F-1.8°C 77% 4.9 mph N7.9 kmh N 6.0 mph9.7 kmh 30.26 in1024.7 mb 0.00 in0.0 mm 0.00 in0.0 mm 0.00 in0.0 mm
10:34 AM 35.2°F1.8°C 28.8°F-1.8°C 77% 4.3 mph N6.9 kmh N 6.7 mph10.8 kmh 30.26 in1024.7 mb 0.00 in0.0 mm 0.00 in0.0 mm 0.00 in0.0 mm
10:39 AM 35.4°F1.9°C 28.9°F-1.7°C 77% 3.8 mph 6.1 kmh 4.7 mph7.6 kmh 30.27 in1025.1 mb 0.00 in0.0 mm 0.00 in0.0 mm 0.00 in0.0 mm
10:44 AM 35.6°F2.0°C 28.8°F-1.8°C 76% 4.5 mph N7.2 kmh N 6.0 mph9.7 kmh 30.27 in1025.1 mb 0.00 in0.0 mm 0.00 in0.0 mm 0.00 in0.0 mm
10:49 AM 35.8°F2.1°C 29.3°F-1.5°C 77% 3.1 mph N5.0 kmh N 4.3 mph6.9 kmh 30.27 in1025.1 mb 0.00 in0.0 mm 0.00 in0.0 mm 0.00 in0.0 mm
10:54 AM 36.0°F2.2°C 29.1°F-1.6°C 76% 5.4 mph N8.7 kmh N 8.3 mph13.4 kmh 30.28 in1025.4 mb 0.00 in0.0 mm 0.00 in0.0 mm 0.00 in0.0 mm
10:59 AM 35.8°F2.1°C 28.9°F-1.7°C 76% 3.8 mph 6.1 kmh 5.4 mph8.7 kmh 30.28 in1025.4 mb 0.00 in0.0 mm 0.00 in0.0 mm 0.00 in0.0 mm
11:04 AM 35.8°F2.1°C 28.9°F-1.7°C 76% 3.1 mph N5.0 kmh N 5.8 mph9.3 kmh 30.28 in1025.4 mb 0.00 in0.0 mm 0.00 in0.0 mm 0.00 in0.0 mm
11:09 AM 36.0°F2.2°C 29.1°F-1.6°C 76% 3.4 mph NNE5.5 kmh NNE 4.0 mph6.4 kmh 30.28 in1025.4 mb 0.00 in0.0 mm 0.00 in0.0 mm 0.00 in0.0 mm
11:14 AM 36.0°F2.2°C 29.1°F-1.6°C 76% 2.5 mph N4.0 kmh N 3.4 mph5.5 kmh 30.28 in1025.4 mb 0.00 in0.0 mm 0.00 in0.0 mm 0.00 in0.0 mm
11:19 AM 36.1°F2.3°C 28.9°F-1.7°C 75% 4.7 mph N7.6 kmh N 7.8 mph12.6 kmh 30.28 in1025.4 mb 0.00 in0.0 mm 0.00 in0.0 mm 0.00 in0.0 mm
11:24 AM 36.3°F2.4°C 29.1°F-1.6°C 75% 3.6 mph NE5.8 kmh NE 5.6 mph9.0 kmh 30.28 in1025.4 mb 0.00 in0.0 mm 0.00 in0.0 mm 0.00 in0.0 mm
11:29 AM 36.7°F2.6°C 29.8°F-1.2°C 76% 5.8 mph NNE9.3 kmh NNE 7.6 mph12.2 kmh 30.28 in1025.4 mb 0.00 in0.0 mm 0.00 in0.0 mm 0.00 in0.0 mm
11:34 AM 36.7°F2.6°C 29.5°F-1.4°C 75% 5.1 mph N8.2 kmh N 6.3 mph10.1 kmh 30.29 in1025.7 mb 0.00 in0.0 mm 0.00 in0.0 mm 0.00 in0.0 mm
11:39 AM 36.9°F2.7°C 28.9°F-1.7°C 73% 4.5 mph NNW7.2 kmh NNW 6.5 mph10.5 kmh 30.29 in1025.7 mb 0.00 in0.0 mm 0.00 in0.0 mm 0.00 in0.0 mm
11:44 AM 36.5°F2.5°C 28.6°F-1.9°C 73% 4.0 mph N6.4 kmh N 5.1 mph8.2 kmh 30.29 in1025.7 mb 0.00 in0.0 mm 0.00 in0.0 mm 0.00 in0.0 mm
11:49 AM 36.5°F2.5°C 28.6°F-1.9°C 73% 4.9 mph N7.9 kmh N 6.7 mph10.8 kmh 30.29 in1025.7 mb 0.00 in0.0 mm 0.00 in0.0 mm 0.00 in0.0 mm
11:54 AM 36.3°F2.4°C 28.6°F-1.9°C 73% 3.6 mph N5.8 kmh N 5.4 mph8.7 kmh 30.29 in1025.7 mb 0.00 in0.0 mm 0.00 in0.0 mm 0.00 in0.0 mm
11:59 AM 36.5°F2.5°C 28.6°F-1.9°C 73% 4.3 mph N6.9 kmh N 6.0 mph9.7 kmh 30.30 in1026.1 mb 0.00 in0.0 mm 0.00 in0.0 mm 0.00 in0.0 mm
12:04 PM 36.7°F2.6°C 28.8°F-1.8°C 73% 2.5 mph N4.0 kmh N 3.8 mph6.1 kmh 30.29 in1025.7 mb 0.00 in0.0 mm 0.00 in0.0 mm 0.00 in0.0 mm
12:09 PM 36.9°F2.7°C 28.8°F-1.8°C 72% 4.0 mph N6.4 kmh N 5.8 mph9.3 kmh 30.30 in1026.1 mb 0.00 in0.0 mm 0.00 in0.0 mm 0.00 in0.0 mm
12:14 PM 36.7°F2.6°C 28.6°F-1.9°C 72% 3.4 mph N5.5 kmh N 4.7 mph7.6 kmh 30.30 in1026.1 mb 0.00 in0.0 mm 0.00 in0.0 mm 0.00 in0.0 mm
12:19 PM 36.7°F2.6°C 28.6°F-1.9°C 72% 3.8 mph N6.1 kmh N 5.6 mph9.0 kmh 30.30 in1026.1 mb 0.00 in0.0 mm 0.00 in0.0 mm 0.00 in0.0 mm
12:24 PM 36.9°F2.7°C 28.8°F-1.8°C 72% 2.7 mph N4.3 kmh N 5.1 mph8.2 kmh 30.30 in1026.1 mb 0.00 in0.0 mm 0.00 in0.0 mm 0.00 in0.0 mm
12:29 PM 37.0°F2.8°C 28.9°F-1.7°C 72% 3.4 mph N5.5 kmh N 4.3 mph6.9 kmh 30.30 in1026.1 mb 0.00 in0.0 mm 0.00 in0.0 mm 0.00 in0.0 mm
12:34 PM 37.0°F2.8°C 28.9°F-1.7°C 72% 2.5 mph N4.0 kmh N 3.8 mph6.1 kmh 30.29 in1025.7 mb 0.00 in0.0 mm 0.00 in0.0 mm 0.00 in0.0 mm
12:44 PM 36.9°F2.7°C 28.4°F-2.0°C 71% 3.6 mph NNE5.8 kmh NNE 4.9 mph7.9 kmh 30.30 in1026.1 mb 0.00 in0.0 mm 0.00 in0.0 mm 0.00 in0.0 mm
12:49 PM 36.9°F2.7°C 28.4°F-2.0°C 71% 3.8 mph N6.1 kmh N 6.5 mph10.5 kmh 30.30 in1026.1 mb 0.00 in0.0 mm 0.00 in0.0 mm 0.00 in0.0 mm
12:54 PM 37.0°F2.8°C 28.6°F-1.9°C 71% 4.0 mph NNW6.4 kmh NNW 7.6 mph12.2 kmh 30.29 in1025.7 mb 0.00 in0.0 mm 0.00 in0.0 mm 0.00 in0.0 mm
12:59 PM 37.2°F2.9°C 28.8°F-1.8°C 71% 5.1 mph NNW8.2 kmh NNW 7.8 mph12.6 kmh 30.29 in1025.7 mb 0.00 in0.0 mm 0.00 in0.0 mm 0.00 in0.0 mm
01:04 PM 37.2°F2.9°C 28.8°F-1.8°C 71% 4.3 mph N6.9 kmh N 5.6 mph9.0 kmh 30.29 in1025.7 mb 0.00 in0.0 mm 0.00 in0.0 mm 0.00 in0.0 mm
01:09 PM 37.2°F2.9°C 28.4°F-2.0°C 70% 3.4 mph NNW5.5 kmh NNW 4.7 mph7.6 kmh 30.29 in1025.7 mb 0.00 in0.0 mm 0.00 in0.0 mm 0.00 in0.0 mm
01:14 PM 37.2°F2.9°C 28.4°F-2.0°C 70% 3.1 mph N5.0 kmh N 4.3 mph6.9 kmh 30.29 in1025.7 mb 0.00 in0.0 mm 0.00 in0.0 mm 0.00 in0.0 mm
01:19 PM 37.0°F2.8°C 28.6°F-1.9°C 71% 2.5 mph N4.0 kmh N 5.6 mph9.0 kmh 30.29 in1025.7 mb 0.00 in0.0 mm 0.00 in0.0 mm 0.00 in0.0 mm
01:24 PM 37.2°F2.9°C 28.8°F-1.8°C 71% 3.6 mph N5.8 kmh N 6.3 mph10.1 kmh 30.29 in1025.7 mb 0.00 in0.0 mm 0.00 in0.0 mm 0.00 in0.0 mm
01:34 PM 37.0°F2.8°C 28.9°F-1.7°C 72% 4.0 mph N6.4 kmh N 5.6 mph9.0 kmh 30.29 in1025.7 mb 0.00 in0.0 mm 0.00 in0.0 mm 0.00 in0.0 mm
01:39 PM 36.9°F2.7°C 28.4°F-2.0°C 71% 3.8 mph N6.1 kmh N 6.0 mph9.7 kmh 30.29 in1025.7 mb 0.00 in0.0 mm 0.00 in0.0 mm 0.00 in0.0 mm
01:44 PM 37.0°F2.8°C 28.6°F-1.9°C 71% 4.5 mph NNW7.2 kmh NNW 5.6 mph9.0 kmh 30.29 in1025.7 mb 0.00 in0.0 mm 0.00 in0.0 mm 0.00 in0.0 mm
01:49 PM 37.2°F2.9°C 28.9°F-1.7°C 72% 3.4 mph NNE5.5 kmh NNE 4.7 mph7.6 kmh 30.29 in1025.7 mb 0.00 in0.0 mm 0.00 in0.0 mm 0.00 in0.0 mm
01:54 PM 37.2°F2.9°C 28.9°F-1.7°C 72% 3.4 mph N5.5 kmh N 4.5 mph7.2 kmh 30.29 in1025.7 mb 0.00 in0.0 mm 0.00 in0.0 mm 0.00 in0.0 mm
01:59 PM 37.0°F2.8°C 28.9°F-1.7°C 72% 3.4 mph N5.5 kmh N 4.3 mph6.9 kmh 30.29 in1025.7 mb 0.00 in0.0 mm 0.00 in0.0 mm 0.00 in0.0 mm
02:04 PM 36.9°F2.7°C 28.4°F-2.0°C 71% 5.8 mph NNE9.3 kmh NNE 7.4 mph11.9 kmh 30.30 in1026.1 mb 0.00 in0.0 mm 0.00 in0.0 mm 0.00 in0.0 mm
02:09 PM 36.9°F2.7°C 28.9°F-1.7°C 73% 1.6 mph NNE2.6 kmh NNE 3.1 mph5.0 kmh 30.30 in1026.1 mb 0.00 in0.0 mm 0.00 in0.0 mm 0.00 in0.0 mm
02:14 PM 37.6°F3.1°C 29.3°F-1.5°C 72% 2.0 mph N3.2 kmh N 4.9 mph7.9 kmh 30.30 in1026.1 mb 0.00 in0.0 mm 0.00 in0.0 mm 0.00 in0.0 mm
02:19 PM 37.8°F3.2°C 29.1°F-1.6°C 71% 4.5 mph N7.2 kmh N 7.4 mph11.9 kmh 30.30 in1026.1 mb 0.00 in0.0 mm 0.00 in0.0 mm 0.00 in0.0 mm
02:24 PM 37.6°F3.1°C 28.9°F-1.7°C 71% 2.7 mph 4.3 kmh 4.0 mph6.4 kmh 30.30 in1026.1 mb 0.00 in0.0 mm 0.00 in0.0 mm 0.00 in0.0 mm
02:29 PM 37.9°F3.3°C 28.9°F-1.7°C 70% 4.9 mph NNW7.9 kmh NNW 7.6 mph12.2 kmh 30.30 in1026.1 mb 0.00 in0.0 mm 0.00 in0.0 mm 0.00 in0.0 mm
02:34 PM 37.9°F3.3°C 29.3°F-1.5°C 71% 3.8 mph N6.1 kmh N 6.7 mph10.8 kmh 30.30 in1026.1 mb 0.00 in0.0 mm 0.00 in0.0 mm 0.00 in0.0 mm
02:39 PM 37.9°F3.3°C 29.3°F-1.5°C 71% 3.4 mph N5.5 kmh N 5.4 mph8.7 kmh 30.30 in1026.1 mb 0.00 in0.0 mm 0.00 in0.0 mm 0.00 in0.0 mm
02:44 PM 37.8°F3.2°C 29.1°F-1.6°C 71% 3.8 mph NNW6.1 kmh NNW 5.4 mph8.7 kmh 30.30 in1026.1 mb 0.00 in0.0 mm 0.00 in0.0 mm 0.00 in0.0 mm
02:49 PM 37.8°F3.2°C 29.1°F-1.6°C 71% 5.1 mph 8.2 kmh 7.6 mph12.2 kmh 30.30 in1026.1 mb 0.00 in0.0 mm 0.00 in0.0 mm 0.00 in0.0 mm
02:54 PM 37.8°F3.2°C 29.1°F-1.6°C 71% 4.7 mph N7.6 kmh N 6.0 mph9.7 kmh 30.30 in1026.1 mb 0.00 in0.0 mm 0.00 in0.0 mm 0.00 in0.0 mm
02:59 PM 37.4°F3.0°C 28.9°F-1.7°C 71% 3.4 mph NNW5.5 kmh NNW 4.5 mph7.2 kmh 30.30 in1026.1 mb 0.00 in0.0 mm 0.00 in0.0 mm 0.00 in0.0 mm
03:04 PM 37.2°F2.9°C 28.8°F-1.8°C 71% 2.7 mph NNE4.3 kmh NNE 3.4 mph5.5 kmh 30.30 in1026.1 mb 0.00 in0.0 mm 0.00 in0.0 mm 0.00 in0.0 mm
03:09 PM 37.4°F3.0°C 28.9°F-1.7°C 71% 5.1 mph N8.2 kmh N 7.2 mph11.6 kmh 30.31 in1026.4 mb 0.00 in0.0 mm 0.00 in0.0 mm 0.00 in0.0 mm
03:14 PM 37.4°F3.0°C 28.9°F-1.7°C 71% 3.4 mph N5.5 kmh N 4.7 mph7.6 kmh 30.31 in1026.4 mb 0.00 in0.0 mm 0.00 in0.0 mm 0.00 in0.0 mm
03:19 PM 37.4°F3.0°C 28.9°F-1.7°C 71% 3.1 mph N5.0 kmh N 5.1 mph8.2 kmh 30.30 in1026.1 mb 0.00 in0.0 mm 0.00 in0.0 mm 0.00 in0.0 mm
03:24 PM 37.4°F3.0°C 28.6°F-1.9°C 70% 3.1 mph NNW5.0 kmh NNW 4.7 mph7.6 kmh 30.31 in1026.4 mb 0.00 in0.0 mm 0.00 in0.0 mm 0.00 in0.0 mm
03:29 PM 37.2°F2.9°C 28.8°F-1.8°C 71% 5.6 mph N9.0 kmh N 7.6 mph12.2 kmh 30.31 in1026.4 mb 0.00 in0.0 mm 0.00 in0.0 mm 0.00 in0.0 mm
03:34 PM 36.9°F2.7°C 28.9°F-1.7°C 73% 3.1 mph NNE5.0 kmh NNE 4.9 mph7.9 kmh 30.31 in1026.4 mb 0.00 in0.0 mm 0.00 in0.0 mm 0.00 in0.0 mm
03:39 PM 37.2°F2.9°C 30.0°F-1.1°C 75% 2.0 mph N3.2 kmh N 3.1 mph5.0 kmh 30.31 in1026.4 mb 0.00 in0.0 mm 0.00 in0.0 mm 0.00 in0.0 mm
03:44 PM 37.0°F2.8°C 29.8°F-1.2°C 75% 2.5 mph N4.0 kmh N 3.1 mph5.0 kmh 30.32 in1026.8 mb 0.00 in0.0 mm 0.00 in0.0 mm 0.00 in0.0 mm
03:49 PM 36.9°F2.7°C 29.7°F-1.3°C 75% 3.1 mph NNW5.0 kmh NNW 4.5 mph7.2 kmh 30.32 in1026.8 mb 0.00 in0.0 mm 0.00 in0.0 mm 0.00 in0.0 mm
03:54 PM 36.9°F2.7°C 28.9°F-1.7°C 73% 2.7 mph N4.3 kmh N 4.3 mph6.9 kmh 30.32 in1026.8 mb 0.00 in0.0 mm 0.00 in0.0 mm 0.00 in0.0 mm
03:59 PM 36.9°F2.7°C 28.9°F-1.7°C 73% 2.9 mph N4.7 kmh N 4.5 mph7.2 kmh 30.32 in1026.8 mb 0.00 in0.0 mm 0.00 in0.0 mm 0.00 in0.0 mm
04:04 PM 37.0°F2.8°C 29.1°F-1.6°C 73% 3.1 mph N5.0 kmh N 4.0 mph6.4 kmh 30.33 in1027.1 mb 0.00 in0.0 mm 0.00 in0.0 mm 0.00 in0.0 mm
04:09 PM 37.0°F2.8°C 28.2°F-2.1°C 70% 2.9 mph N4.7 kmh N 4.0 mph6.4 kmh 30.33 in1027.1 mb 0.00 in0.0 mm 0.00 in0.0 mm 0.00 in0.0 mm
04:14 PM 36.9°F2.7°C 28.4°F-2.0°C 71% 2.5 mph NNE4.0 kmh NNE 4.5 mph7.2 kmh 30.33 in1027.1 mb 0.00 in0.0 mm 0.00 in0.0 mm 0.00 in0.0 mm
04:19 PM 37.0°F2.8°C 28.2°F-2.1°C 70% 3.4 mph NNE5.5 kmh NNE 4.7 mph7.6 kmh 30.33 in1027.1 mb 0.00 in0.0 mm 0.00 in0.0 mm 0.00 in0.0 mm
04:24 PM 37.2°F2.9°C 28.4°F-2.0°C 70% 3.8 mph N6.1 kmh N 5.8 mph9.3 kmh 30.33 in1027.1 mb 0.00 in0.0 mm 0.00 in0.0 mm 0.00 in0.0 mm
04:29 PM 37.2°F2.9°C 28.0°F-2.2°C 69% 4.3 mph NNE6.9 kmh NNE 6.9 mph11.1 kmh 30.34 in1027.4 mb 0.00 in0.0 mm 0.00 in0.0 mm 0.00 in0.0 mm
04:34 PM 37.0°F2.8°C 28.2°F-2.1°C 70% 3.4 mph N5.5 kmh N 4.9 mph7.9 kmh 30.34 in1027.4 mb 0.00 in0.0 mm 0.00 in0.0 mm 0.00 in0.0 mm
04:39 PM 36.7°F2.6°C 28.2°F-2.1°C 71% 3.6 mph N5.8 kmh N 5.6 mph9.0 kmh 30.34 in1027.4 mb 0.00 in0.0 mm 0.00 in0.0 mm 0.00 in0.0 mm
04:44 PM 36.3°F2.4°C 28.2°F-2.1°C 72% 2.5 mph N4.0 kmh N 3.6 mph5.8 kmh 30.34 in1027.4 mb 0.00 in0.0 mm 0.00 in0.0 mm 0.00 in0.0 mm
04:49 PM 36.1°F2.3°C 28.0°F-2.2°C 72% 3.4 mph NNW5.5 kmh NNW 5.6 mph9.0 kmh 30.34 in1027.4 mb 0.00 in0.0 mm 0.00 in0.0 mm 0.00 in0.0 mm
04:54 PM 36.3°F2.4°C 28.2°F-2.1°C 72% 3.8 mph N6.1 kmh N 5.1 mph8.2 kmh 30.34 in1027.4 mb 0.00 in0.0 mm 0.00 in0.0 mm 0.00 in0.0 mm
04:59 PM 36.3°F2.4°C 27.9°F-2.3°C 71% 3.4 mph NNW5.5 kmh NNW 5.6 mph9.0 kmh 30.34 in1027.4 mb 0.00 in0.0 mm 0.00 in0.0 mm 0.00 in0.0 mm
05:04 PM 36.1°F2.3°C 27.7°F-2.4°C 71% 2.5 mph NNE4.0 kmh NNE 3.6 mph5.8 kmh 30.34 in1027.4 mb 0.00 in0.0 mm 0.00 in0.0 mm 0.00 in0.0 mm
05:09 PM 36.1°F2.3°C 27.3°F-2.6°C 70% 3.1 mph N5.0 kmh N 4.5 mph7.2 kmh 30.34 in1027.4 mb 0.00 in0.0 mm 0.00 in0.0 mm 0.00 in0.0 mm
05:14 PM 36.1°F2.3°C 27.3°F-2.6°C 70% 2.5 mph N4.0 kmh N 3.6 mph5.8 kmh 30.35 in1027.8 mb 0.00 in0.0 mm 0.00 in0.0 mm 0.00 in0.0 mm
05:19 PM 36.0°F2.2°C 27.1°F-2.7°C 70% 3.1 mph N5.0 kmh N 5.1 mph8.2 kmh 30.35 in1027.8 mb 0.00 in0.0 mm 0.00 in0.0 mm 0.00 in0.0 mm
05:24 PM 35.8°F2.1°C 26.6°F-3.0°C 69% 2.7 mph NNE4.3 kmh NNE 4.7 mph7.6 kmh 30.35 in1027.8 mb 0.00 in0.0 mm 0.00 in0.0 mm 0.00 in0.0 mm
05:29 PM 35.8°F2.1°C 27.3°F-2.6°C 71% 2.0 mph N3.2 kmh N 3.8 mph6.1 kmh 30.35 in1027.8 mb 0.00 in0.0 mm 0.00 in0.0 mm 0.00 in0.0 mm
05:34 PM 35.6°F2.0°C 27.1°F-2.7°C 71% 2.2 mph N3.5 kmh N 3.6 mph5.8 kmh 30.35 in1027.8 mb 0.00 in0.0 mm 0.00 in0.0 mm 0.00 in0.0 mm
05:39 PM 35.4°F1.9°C 27.0°F-2.8°C 71% 1.8 mph N2.9 kmh N 2.2 mph3.5 kmh 30.35 in1027.8 mb 0.00 in0.0 mm 0.00 in0.0 mm 0.00 in0.0 mm
05:44 PM 35.4°F1.9°C 27.0°F-2.8°C 71% 1.8 mph N2.9 kmh N 2.7 mph4.3 kmh 30.35 in1027.8 mb 0.00 in0.0 mm 0.00 in0.0 mm 0.00 in0.0 mm
05:49 PM 35.2°F1.8°C 27.1°F-2.7°C 72% 1.6 mph NNE2.6 kmh NNE 2.2 mph3.5 kmh 30.35 in1027.8 mb 0.00 in0.0 mm 0.00 in0.0 mm 0.00 in0.0 mm
05:54 PM 35.1°F1.7°C 26.6°F-3.0°C 71% 3.1 mph N5.0 kmh N 3.6 mph5.8 kmh 30.35 in1027.8 mb 0.00 in0.0 mm 0.00 in0.0 mm 0.00 in0.0 mm
05:59 PM 35.1°F1.7°C 26.6°F-3.0°C 71% 2.0 mph N3.2 kmh N 2.7 mph4.3 kmh 30.35 in1027.8 mb 0.00 in0.0 mm 0.00 in0.0 mm 0.00 in0.0 mm
06:04 PM 34.9°F1.6°C 26.4°F-3.1°C 71% 1.3 mph NNE2.1 kmh NNE 2.2 mph3.5 kmh 30.36 in1028.1 mb 0.00 in0.0 mm 0.00 in0.0 mm 0.00 in0.0 mm
06:09 PM 34.7°F1.5°C 26.6°F-3.0°C 72% 2.7 mph N4.3 kmh N 3.6 mph5.8 kmh 30.36 in1028.1 mb 0.00 in0.0 mm 0.00 in0.0 mm 0.00 in0.0 mm
06:14 PM 34.5°F1.4°C 26.4°F-3.1°C 72% 1.8 mph N2.9 kmh N 2.9 mph4.7 kmh 30.37 in1028.4 mb 0.00 in0.0 mm 0.00 in0.0 mm 0.00 in0.0 mm
06:19 PM 34.5°F1.4°C 26.4°F-3.1°C 72% 1.6 mph NE2.6 kmh NE 2.0 mph3.2 kmh 30.37 in1028.4 mb 0.00 in0.0 mm 0.00 in0.0 mm 0.00 in0.0 mm
06:24 PM 34.3°F1.3°C 26.6°F-3.0°C 73% 1.3 mph NE2.1 kmh NE 2.2 mph3.5 kmh 30.37 in1028.4 mb 0.00 in0.0 mm 0.00 in0.0 mm 0.00 in0.0 mm
06:29 PM 34.3°F1.3°C 26.6°F-3.0°C 73% 1.1 mph NE1.8 kmh NE 1.6 mph2.6 kmh 30.37 in1028.4 mb 0.00 in0.0 mm 0.00 in0.0 mm 0.00 in0.0 mm
06:34 PM 34.3°F1.3°C 26.6°F-3.0°C 73% 1.3 mph NE2.1 kmh NE 1.6 mph2.6 kmh 30.37 in1028.4 mb 0.00 in0.0 mm 0.00 in0.0 mm 0.00 in0.0 mm
06:39 PM 34.2°F1.2°C 26.4°F-3.1°C 73% Calm Calm -- 30.37 in1028.4 mb 0.00 in0.0 mm 0.00 in0.0 mm 0.00 in0.0 mm
06:44 PM 34.2°F1.2°C 27.1°F-2.7°C 75% 0.7 mph NE1.1 kmh NE 1.1 mph1.8 kmh 30.38 in1028.8 mb 0.00 in0.0 mm 0.00 in0.0 mm 0.00 in0.0 mm
06:49 PM 34.2°F1.2°C 27.1°F-2.7°C 75% Calm Calm -- 30.38 in1028.8 mb 0.00 in0.0 mm 0.00 in0.0 mm 0.00 in0.0 mm
06:54 PM 34.0°F1.1°C 27.1°F-2.7°C 76% Calm Calm -- 30.38 in1028.8 mb 0.00 in0.0 mm 0.00 in0.0 mm 0.00 in0.0 mm
06:59 PM 34.0°F1.1°C 27.1°F-2.7°C 76% Calm Calm -- 30.38 in1028.8 mb 0.00 in0.0 mm 0.00 in0.0 mm 0.00 in0.0 mm
07:04 PM 33.4°F0.8°C 26.6°F-3.0°C 76% Calm Calm 0.7 mph1.1 kmh 30.38 in1028.8 mb 0.00 in0.0 mm 0.00 in0.0 mm 0.00 in0.0 mm
07:09 PM 33.4°F0.8°C 26.6°F-3.0°C 76% 0.4 mph S0.6 kmh S 1.3 mph2.1 kmh 30.39 in1029.1 mb 0.00 in0.0 mm 0.00 in0.0 mm 0.00 in0.0 mm
07:14 PM 33.3°F0.7°C 26.8°F-2.9°C 77% Calm Calm 0.7 mph1.1 kmh 30.39 in1029.1 mb 0.00 in0.0 mm 0.00 in0.0 mm 0.00 in0.0 mm
07:19 PM 33.1°F0.6°C 26.6°F-3.0°C 77% Calm Calm -- 30.39 in1029.1 mb 0.00 in0.0 mm 0.00 in0.0 mm 0.00 in0.0 mm
07:24 PM 32.9°F0.5°C 26.4°F-3.1°C 77% Calm Calm -- 30.39 in1029.1 mb 0.00 in0.0 mm 0.00 in0.0 mm 0.00 in0.0 mm
07:29 PM 32.7°F0.4°C 26.2°F-3.2°C 77% 0.4 mph SW0.6 kmh SW 1.1 mph1.8 kmh 30.39 in1029.1 mb 0.00 in0.0 mm 0.00 in0.0 mm 0.00 in0.0 mm
07:34 PM 32.5°F0.3°C 26.4°F-3.1°C 78% Calm Calm -- 30.39 in1029.1 mb 0.00 in0.0 mm 0.00 in0.0 mm 0.00 in0.0 mm
07:39 PM 32.2°F0.1°C 26.1°F-3.3°C 78% Calm Calm -- 30.39 in1029.1 mb 0.00 in0.0 mm 0.00 in0.0 mm 0.00 in0.0 mm
07:44 PM 32.2°F0.1°C 26.1°F-3.3°C 78% Calm Calm -- 30.40 in1029.5 mb 0.00 in0.0 mm 0.00 in0.0 mm 0.00 in0.0 mm
07:49 PM 32.4°F0.2°C 27.0°F-2.8°C 80% Calm Calm 0.7 mph1.1 kmh 30.40 in1029.5 mb 0.00 in0.0 mm 0.00 in0.0 mm 0.00 in0.0 mm
07:54 PM 32.4°F0.2°C 27.0°F-2.8°C 80% 0.4 mph SSW0.6 kmh SSW 1.6 mph2.6 kmh 30.41 in1029.8 mb 0.00 in0.0 mm 0.00 in0.0 mm 0.00 in0.0 mm
07:59 PM 32.4°F0.2°C 27.0°F-2.8°C 80% Calm Calm -- 30.41 in1029.8 mb 0.00 in0.0 mm 0.00 in0.0 mm 0.00 in0.0 mm
08:04 PM 32.5°F0.3°C 27.1°F-2.7°C 80% Calm Calm -- 30.41 in1029.8 mb 0.00 in0.0 mm 0.00 in0.0 mm 0.00 in0.0 mm
08:09 PM 32.7°F0.4°C 27.3°F-2.6°C 80% Calm Calm -- 30.41 in1029.8 mb 0.00 in0.0 mm 0.00 in0.0 mm 0.00 in0.0 mm
08:14 PM 32.7°F0.4°C 27.3°F-2.6°C 80% 0.2 mph NNE0.3 kmh NNE 1.3 mph2.1 kmh 30.41 in1029.8 mb 0.00 in0.0 mm 0.00 in0.0 mm 0.00 in0.0 mm
08:19 PM 32.9°F0.5°C 26.8°F-2.9°C 78% Calm Calm -- 30.42 in1030.1 mb 0.00 in0.0 mm 0.00 in0.0 mm 0.00 in0.0 mm
08:24 PM 32.9°F0.5°C 26.8°F-2.9°C 78% 0.2 mph S0.3 kmh S 1.1 mph1.8 kmh 30.42 in1030.1 mb 0.00 in0.0 mm 0.00 in0.0 mm 0.00 in0.0 mm
08:29 PM 32.9°F0.5°C 27.3°F-2.6°C 80% 1.3 mph ESE2.1 kmh ESE 1.6 mph2.6 kmh 30.42 in1030.1 mb 0.00 in0.0 mm 0.00 in0.0 mm 0.00 in0.0 mm
08:34 PM 33.1°F0.6°C 27.5°F-2.5°C 80% Calm Calm -- 30.42 in1030.1 mb 0.00 in0.0 mm 0.00 in0.0 mm 0.00 in0.0 mm
08:39 PM 33.3°F0.7°C 27.7°F-2.4°C 80% Calm Calm -- 30.42 in1030.1 mb 0.00 in0.0 mm 0.00 in0.0 mm 0.00 in0.0 mm
08:44 PM 33.3°F0.7°C 27.7°F-2.4°C 80% 0.2 mph SSE0.3 kmh SSE 0.9 mph1.4 kmh 30.42 in1030.1 mb 0.00 in0.0 mm 0.00 in0.0 mm 0.00 in0.0 mm
08:49 PM 33.3°F0.7°C 27.7°F-2.4°C 80% Calm Calm 0.7 mph1.1 kmh 30.42 in1030.1 mb 0.00 in0.0 mm 0.00 in0.0 mm 0.00 in0.0 mm
08:54 PM 33.4°F0.8°C 27.9°F-2.3°C 80% Calm Calm 1.8 mph2.9 kmh 30.42 in1030.1 mb 0.00 in0.0 mm 0.00 in0.0 mm 0.00 in0.0 mm
08:59 PM 33.4°F0.8°C 27.9°F-2.3°C 80% Calm Calm 1.1 mph1.8 kmh 30.42 in1030.1 mb 0.00 in0.0 mm 0.00 in0.0 mm 0.00 in0.0 mm
09:04 PM 33.6°F0.9°C 28.0°F-2.2°C 80% 1.1 mph NE1.8 kmh NE 1.6 mph2.6 kmh 30.42 in1030.1 mb 0.00 in0.0 mm 0.00 in0.0 mm 0.00 in0.0 mm
09:09 PM 33.6°F0.9°C 28.0°F-2.2°C 80% Calm Calm 0.4 mph0.6 kmh 30.41 in1029.8 mb 0.00 in0.0 mm 0.00 in0.0 mm 0.00 in0.0 mm
09:14 PM 33.6°F0.9°C 28.0°F-2.2°C 80% Calm Calm -- 30.41 in1029.8 mb 0.00 in0.0 mm 0.00 in0.0 mm 0.00 in0.0 mm
09:19 PM 33.6°F0.9°C 28.0°F-2.2°C 80% 1.3 mph NNE2.1 kmh NNE 3.1 mph5.0 kmh 30.42 in1030.1 mb 0.00 in0.0 mm 0.00 in0.0 mm 0.00 in0.0 mm
09:24 PM 33.6°F0.9°C 27.5°F-2.5°C 78% 1.3 mph NE2.1 kmh NE 1.6 mph2.6 kmh 30.42 in1030.1 mb 0.00 in0.0 mm 0.00 in0.0 mm 0.00 in0.0 mm
09:29 PM 33.6°F0.9°C 27.1°F-2.7°C 77% 1.1 mph NE1.8 kmh NE 2.0 mph3.2 kmh 30.42 in1030.1 mb 0.00 in0.0 mm 0.00 in0.0 mm 0.00 in0.0 mm
09:34 PM 33.6°F0.9°C 26.8°F-2.9°C 76% 1.6 mph NE2.6 kmh NE 2.0 mph3.2 kmh 30.42 in1030.1 mb 0.00 in0.0 mm 0.00 in0.0 mm 0.00 in0.0 mm
09:39 PM 33.6°F0.9°C 26.8°F-2.9°C 76% 1.3 mph NNE2.1 kmh NNE 1.8 mph2.9 kmh 30.42 in1030.1 mb 0.00 in0.0 mm 0.00 in0.0 mm 0.00 in0.0 mm
09:44 PM 33.6°F0.9°C 26.6°F-3.0°C 75% 2.2 mph NE3.5 kmh NE 2.9 mph4.7 kmh 30.42 in1030.1 mb 0.00 in0.0 mm 0.00 in0.0 mm 0.00 in0.0 mm
09:49 PM 33.6°F0.9°C 26.8°F-2.9°C 76% 1.6 mph NE2.6 kmh NE 2.2 mph3.5 kmh 30.42 in1030.1 mb 0.00 in0.0 mm 0.00 in0.0 mm 0.00 in0.0 mm
09:54 PM 33.6°F0.9°C 26.6°F-3.0°C 75% 1.1 mph NE1.8 kmh NE 1.8 mph2.9 kmh 30.43 in1030.5 mb 0.00 in0.0 mm 0.00 in0.0 mm 0.00 in0.0 mm
09:59 PM 33.6°F0.9°C 26.6°F-3.0°C 75% 0.7 mph E1.1 kmh E 2.2 mph3.5 kmh 30.43 in1030.5 mb 0.00 in0.0 mm 0.00 in0.0 mm 0.00 in0.0 mm
10:04 PM 33.4°F0.8°C 26.4°F-3.1°C 75% 1.8 mph NE2.9 kmh NE 2.7 mph4.3 kmh 30.42 in1030.1 mb 0.00 in0.0 mm 0.00 in0.0 mm 0.00 in0.0 mm
10:09 PM 33.4°F0.8°C 26.4°F-3.1°C 75% 1.6 mph NE2.6 kmh NE 2.2 mph3.5 kmh 30.43 in1030.5 mb 0.00 in0.0 mm 0.00 in0.0 mm 0.00 in0.0 mm
10:14 PM 33.4°F0.8°C 26.4°F-3.1°C 75% 1.6 mph NE2.6 kmh NE 2.2 mph3.5 kmh 30.43 in1030.5 mb 0.00 in0.0 mm 0.00 in0.0 mm 0.00 in0.0 mm
10:19 PM 33.3°F0.7°C 25.5°F-3.6°C 73% 1.6 mph NNE2.6 kmh NNE 2.0 mph3.2 kmh 30.43 in1030.5 mb 0.00 in0.0 mm 0.00 in0.0 mm 0.00 in0.0 mm
10:24 PM 33.4°F0.8°C 26.6°F-3.0°C 76% 1.1 mph NE1.8 kmh NE 1.8 mph2.9 kmh 30.43 in1030.5 mb 0.00 in0.0 mm 0.00 in0.0 mm 0.00 in0.0 mm
10:29 PM 33.3°F0.7°C 26.2°F-3.2°C 75% 1.3 mph NE2.1 kmh NE 1.8 mph2.9 kmh 30.43 in1030.5 mb 0.00 in0.0 mm 0.00 in0.0 mm 0.00 in0.0 mm
10:34 PM 33.3°F0.7°C 26.6°F-3.0°C 76% 0.7 mph NE1.1 kmh NE 1.3 mph2.1 kmh 30.43 in1030.5 mb 0.00 in0.0 mm 0.00 in0.0 mm 0.00 in0.0 mm
10:39 PM 33.3°F0.7°C 26.6°F-3.0°C 76% 0.2 mph ENE0.3 kmh ENE 1.1 mph1.8 kmh 30.43 in1030.5 mb 0.00 in0.0 mm 0.00 in0.0 mm 0.00 in0.0 mm
10:44 PM 33.3°F0.7°C 26.6°F-3.0°C 76% 1.1 mph NE1.8 kmh NE 1.8 mph2.9 kmh 30.43 in1030.5 mb 0.00 in0.0 mm 0.00 in0.0 mm 0.00 in0.0 mm
10:49 PM 33.3°F0.7°C 26.2°F-3.2°C 75% 1.8 mph NE2.9 kmh NE 2.5 mph4.0 kmh 30.43 in1030.5 mb 0.00 in0.0 mm 0.00 in0.0 mm 0.00 in0.0 mm
10:54 PM 33.3°F0.7°C 26.2°F-3.2°C 75% 1.6 mph NE2.6 kmh NE 1.8 mph2.9 kmh 30.43 in1030.5 mb 0.00 in0.0 mm 0.00 in0.0 mm 0.00 in0.0 mm
10:59 PM 33.1°F0.6°C 25.3°F-3.7°C 73% 1.6 mph NE2.6 kmh NE 2.2 mph3.5 kmh 30.43 in1030.5 mb 0.00 in0.0 mm 0.00 in0.0 mm 0.00 in0.0 mm
11:04 PM 33.1°F0.6°C 26.1°F-3.3°C 75% 1.8 mph ENE2.9 kmh ENE 2.7 mph4.3 kmh 30.42 in1030.1 mb 0.00 in0.0 mm 0.00 in0.0 mm 0.00 in0.0 mm
11:09 PM 33.1°F0.6°C 26.1°F-3.3°C 75% 2.0 mph NE3.2 kmh NE 2.9 mph4.7 kmh 30.42 in1030.1 mb 0.00 in0.0 mm 0.00 in0.0 mm 0.00 in0.0 mm
11:14 PM 32.9°F0.5°C 25.9°F-3.4°C 75% 1.8 mph NE2.9 kmh NE 2.9 mph4.7 kmh 30.42 in1030.1 mb 0.00 in0.0 mm 0.00 in0.0 mm 0.00 in0.0 mm
11:19 PM 32.9°F0.5°C 25.9°F-3.4°C 75% 1.8 mph NE2.9 kmh NE 2.5 mph4.0 kmh 30.42 in1030.1 mb 0.00 in0.0 mm 0.00 in0.0 mm 0.00 in0.0 mm
11:24 PM 32.9°F0.5°C 25.9°F-3.4°C 75% 0.2 mph NE0.3 kmh NE 1.3 mph2.1 kmh 30.42 in1030.1 mb 0.00 in0.0 mm 0.00 in0.0 mm 0.00 in0.0 mm
11:29 PM 32.9°F0.5°C 26.2°F-3.2°C 76% 0.7 mph E1.1 kmh E 2.0 mph3.2 kmh 30.42 in1030.1 mb 0.00 in0.0 mm 0.00 in0.0 mm 0.00 in0.0 mm
11:34 PM 32.9°F0.5°C 25.9°F-3.4°C 75% 1.3 mph NE2.1 kmh NE 1.8 mph2.9 kmh 30.42 in1030.1 mb 0.00 in0.0 mm 0.00 in0.0 mm 0.00 in0.0 mm
11:39 PM 32.9°F0.5°C 25.9°F-3.4°C 75% 1.3 mph NE2.1 kmh NE 1.8 mph2.9 kmh 30.42 in1030.1 mb 0.00 in0.0 mm 0.00 in0.0 mm 0.00 in0.0 mm
11:44 PM 32.9°F0.5°C 26.2°F-3.2°C 76% 1.3 mph ENE2.1 kmh ENE 2.0 mph3.2 kmh 30.42 in1030.1 mb 0.00 in0.0 mm 0.00 in0.0 mm 0.00 in0.0 mm
11:49 PM 32.9°F0.5°C 26.2°F-3.2°C 76% 1.6 mph NE2.6 kmh NE 1.8 mph2.9 kmh 30.42 in1030.1 mb 0.00 in0.0 mm 0.00 in0.0 mm 0.00 in0.0 mm
11:54 PM 32.7°F0.4°C 26.1°F-3.3°C 76% 1.3 mph ENE2.1 kmh ENE 1.8 mph2.9 kmh 30.42 in1030.1 mb 0.00 in0.0 mm 0.00 in0.0 mm 0.00 in0.0 mm
11:59 PM 32.5°F0.3°C 25.9°F-3.4°C 76% 1.8 mph E2.9 kmh E 2.2 mph3.5 kmh 30.41 in1029.8 mb 0.00 in0.0 mm 0.00 in0.0 mm 0.00 in0.0 mm